Time;durP1;ratioP1;P1;durP2;ratioP2;P2;SDS_P1;SDS_P2;PMS_P1;PMS_P2;Temp;Humidity;BMP_temperature;BMP_pressure;BME280_temperature;BME280_humidity;BME280_pressure;Samples;Min_cycle;Max_cycle;Signal;HPM_P1;HPM_P2
2022/11/25 00:00:46;;;;;;;;;;;;;;;;;;4972051;28;20016;-53
2022/11/25 00:03:11;;;;;;;;;;;;;;;;;;4999627;28;19921;-53
2022/11/25 00:05:37;;;;;;;;;;;;;;;;;;5004637;28;20014;-53
2022/11/25 00:08:03;;;;;;;;;;;;;;;;;;5000646;28;19926;-53
2022/11/25 00:10:29;;;;;;;;;;;;;;;;;;4992773;28;21255;-53
2022/11/25 00:12:55;;;;;;;;;;;;;;;;;;5006879;28;20429;-53
2022/11/25 00:15:21;;;;;;;;;;;;;;;;;;4999378;28;19961;-53
2022/11/25 00:17:47;;;;;;;;;;;;;;;;;;5010089;28;19925;-54
2022/11/25 00:20:12;;;;;;;;;;;;;;;;;;5007677;28;19924;-53
2022/11/25 00:22:38;;;;;;;;;;;;;;;;;;4990076;28;19972;-53
2022/11/25 00:25:04;;;;;;;;;;;;;;;;;;5005312;28;20315;-54
2022/11/25 00:27:30;;;;;;;;;;;;;;;;;;4999743;28;19999;-53
2022/11/25 00:29:56;;;;;;;;;;;;;;;;;;5002732;28;19944;-53
2022/11/25 00:32:22;;;;;;;;;;;;;;;;;;4995202;28;20479;-52
2022/11/25 00:34:48;;;;;;;;;;;;;;;;;;5004215;28;19993;-54
2022/11/25 00:37:14;;;;;;;;;;;;;;;;;;5005873;28;20456;-53
2022/11/25 00:39:39;;;;;;;;;;;;;;;;;;4996519;28;20475;-53
2022/11/25 00:44:50;;;;;;;;;;;;;;;;;;5021251;28;19976;-55
2022/11/25 00:47:16;;;;;;;;;;;;;;;;;;5001739;28;20036;-53
2022/11/25 00:49:42;;;;;;;;;;;;;;;;;;5007141;28;19978;-53
2022/11/25 00:52:07;;;;;;;;;;;;;;;;;;5007430;28;20714;-52
2022/11/25 00:54:33;;;;;;;;;;;;;;;;;;5013848;28;19917;-54
2022/11/25 00:56:59;;;;;;;;;;;;;;;;;;5007306;28;20072;-54
2022/11/25 00:59:25;;;;;;;;;;;;;;;;;;5009540;28;20431;-54
2022/11/25 01:01:51;;;;;;;;;;;;;;;;;;4994114;28;20560;-53
2022/11/25 01:04:17;;;;;;;;;;;;;;;;;;4999811;28;19917;-54
2022/11/25 01:06:43;;;;;;;;;;;;;;;;;;4998928;28;19924;-54
2022/11/25 01:09:09;;;;;;;;;;;;;;;;;;5012961;28;19925;-53
2022/11/25 01:11:35;;;;;;;;;;;;;;;;;;5002037;28;20410;-54
2022/11/25 01:14:01;;;;;;;;;;;;;;;;;;5007329;28;19922;-53
2022/11/25 01:16:27;;;;;;;;;;;;;;;;;;5010912;28;19921;-54
2022/11/25 01:18:53;;;;;;;;;;;;;;;;;;5004170;28;19966;-53
2022/11/25 01:21:19;;;;;;;;;;;;;;;;;;5008545;28;21047;-53
2022/11/25 01:23:44;;;;;;;;;;;;;;;;;;5008241;28;19925;-52
2022/11/25 01:26:10;;;;;;;;;;;;;;;;;;4998559;28;19924;-52
2022/11/25 01:28:36;;;;;;;;;;;;;;;;;;5001453;28;19920;-54
2022/11/25 01:31:02;;;;;;;;;;;;;;;;;;5014128;28;20360;-53
2022/11/25 01:33:31;;;;;;;;;;;;;;;;;;4998271;28;19925;-53
2022/11/25 01:35:57;;;;;;;;;;;;;;;;;;5004272;28;19929;-55
2022/11/25 01:38:22;;;;;;;;;;;;;;;;;;5011245;28;19929;-54
2022/11/25 01:40:48;;;;;;;;;;;;;;;;;;5010163;28;20106;-52
2022/11/25 01:43:14;;;;;;;;;;;;;;;;;;4998645;28;19925;-54
2022/11/25 01:45:40;;;;;;;;;;;;;;;;;;5000260;28;19917;-54
2022/11/25 01:48:06;;;;;;;;;;;;;;;;;;4993502;28;19923;-53
2022/11/25 01:50:32;;;;;;;;;;;;;;;;;;5008194;28;20283;-52
2022/11/25 01:52:58;;;;;;;;;;;;;;;;;;5013217;28;19927;-54
2022/11/25 01:55:24;;;;;;;;;;;;;;;;;;4993837;28;20361;-54
2022/11/25 01:57:49;;;;;;;;;;;;;;;;;;5005949;28;19932;-54
2022/11/25 02:00:15;;;;;;;;;;;;;;;;;;4992053;28;19974;-54
2022/11/25 02:02:41;;;;;;;;;;;;;;;;;;5016148;28;19922;-54
2022/11/25 02:05:07;;;;;;;;;;;;;;;;;;5014351;28;19967;-55
2022/11/25 02:07:33;;;;;;;;;;;;;;;;;;5000275;28;19964;-53
2022/11/25 02:09:59;;;;;;;;;;;;;;;;;;4992344;28;19925;-53
2022/11/25 02:12:25;;;;;;;;;;;;;;;;;;4994143;28;20023;-53
2022/11/25 02:14:51;;;;;;;;;;;;;;;;;;5009957;28;19944;-53
2022/11/25 02:17:16;;;;;;;;;;;;;;;;;;5007343;28;19993;-53
2022/11/25 02:19:42;;;;;;;;;;;;;;;;;;4994854;28;19924;-54
2022/11/25 02:22:08;;;;;;;;;;;;;;;;;;5008462;28;19968;-54
2022/11/25 02:24:34;;;;;;;;;;;;;;;;;;5000921;28;20314;-53
2022/11/25 02:27:00;;;;;;;;;;;;;;;;;;4998422;28;19922;-53
2022/11/25 02:29:26;;;;;;;;;;;;;;;;;;5014742;28;19932;-53
2022/11/25 02:31:52;;;;;;;;;;;;;;;;;;5001498;28;20027;-53
2022/11/25 02:34:17;;;;;;;;;;;;;;;;;;4997320;28;20374;-52
2022/11/25 02:36:43;;;;;;;;;;;;;;;;;;4999648;28;20707;-54
2022/11/25 02:39:09;;;;;;;;;;;;;;;;;;4988710;28;19976;-53
2022/11/25 02:41:35;;;;;;;;;;;;;;;;;;4988621;28;20422;-53
2022/11/25 02:44:01;;;;;;;;;;;;;;;;;;5002998;28;20057;-54
2022/11/25 02:46:27;;;;;;;;;;;;;;;;;;5004382;28;19925;-53
2022/11/25 02:48:53;;;;;;;;;;;;;;;;;;5005825;28;19921;-53
2022/11/25 02:51:19;;;;;;;;;;;;;;;;;;5010891;28;19932;-54
2022/11/25 02:53:44;;;;;;;;;;;;;;;;;;5012559;28;19924;-53
2022/11/25 02:56:10;;;;;;;;;;;;;;;;;;4996959;28;20037;-53
2022/11/25 02:58:36;;;;;;;;;;;;;;;;;;5001833;28;19925;-52
2022/11/25 03:01:02;;;;;;;;;;;;;;;;;;5000634;28;19914;-53
2022/11/25 03:03:28;;;;;;;;;;;;;;;;;;5015561;28;19932;-53
2022/11/25 03:05:54;;;;;;;;;;;;;;;;;;4992846;28;19933;-53
2022/11/25 03:08:20;;;;;;;;;;;;;;;;;;5006410;28;20390;-54
2022/11/25 03:10:45;;;;;;;;;;;;;;;;;;4997314;28;19935;-53
2022/11/25 03:13:11;;;;;;;;;;;;;;;;;;4989192;28;20020;-52
2022/11/25 03:15:37;;;;;;;;;;;;;;;;;;5002121;28;20377;-53
2022/11/25 03:18:03;;;;;;;;;;;;;;;;;;4989022;28;19925;-54
2022/11/25 03:20:29;;;;;;;;;;;;;;;;;;5010523;28;19930;-54
2022/11/25 03:22:55;;;;;;;;;;;;;;;;;;5006171;28;19917;-53
2022/11/25 03:25:21;;;;;;;;;;;;;;;;;;5005661;28;19972;-53
2022/11/25 03:27:47;;;;;;;;;;;;;;;;;;5004756;28;19921;-53
2022/11/25 03:30:12;;;;;;;;;;;;;;;;;;4997854;28;19925;-54
2022/11/25 03:32:38;;;;;;;;;;;;;;;;;;5000257;28;19921;-54
2022/11/25 03:35:04;;;;;;;;;;;;;;;;;;5008230;28;19923;-52
2022/11/25 03:37:30;;;;;;;;;;;;;;;;;;5005229;28;19925;-53
2022/11/25 03:39:56;;;;;;;;;;;;;;;;;;5002645;28;20348;-53
2022/11/25 03:42:23;;;;;;;;;;;;;;;;;;4998130;28;21301;-52
2022/11/25 03:44:49;;;;;;;;;;;;;;;;;;4992979;28;19926;-53
2022/11/25 03:47:15;;;;;;;;;;;;;;;;;;5001147;28;20389;-53
2022/11/25 03:49:41;;;;;;;;;;;;;;;;;;5005431;28;19941;-53
2022/11/25 03:52:07;;;;;;;;;;;;;;;;;;4998777;28;19910;-53
2022/11/25 03:54:33;;;;;;;;;;;;;;;;;;5009411;28;19925;-53
2022/11/25 03:56:59;;;;;;;;;;;;;;;;;;4981275;28;20378;-54
2022/11/25 03:59:25;;;;;;;;;;;;;;;;;;4997245;28;19948;-53
2022/11/25 04:01:50;;;;;;;;;;;;;;;;;;4998276;28;19921;-53
2022/11/25 04:04:16;;;;;;;;;;;;;;;;;;5002260;28;19916;-54
2022/11/25 04:06:42;;;;;;;;;;;;;;;;;;4997847;28;20016;-53
2022/11/25 04:09:08;;;;;;;;;;;;;;;;;;5005404;28;20414;-53
2022/11/25 04:14:18;;;;;;;;;;;;;;;;;;5006145;28;20381;-53
2022/11/25 04:16:44;;;;;;;;;;;;;;;;;;4997115;28;19918;-54
2022/11/25 04:19:10;;;;;;;;;;;;;;;;;;5001582;28;20357;-53
2022/11/25 04:21:36;;;;;;;;;;;;;;;;;;5015679;28;20024;-53
2022/11/25 04:24:02;;;;;;;;;;;;;;;;;;5017761;28;19928;-52
2022/11/25 04:26:28;;;;;;;;;;;;;;;;;;5003296;28;20474;-54
2022/11/25 04:28:53;;;;;;;;;;;;;;;;;;4998898;28;19925;-55
2022/11/25 04:31:19;;;;;;;;;;;;;;;;;;5001037;28;20060;-53
2022/11/25 04:33:45;;;;;;;;;;;;;;;;;;4992762;28;19917;-53
2022/11/25 04:36:11;;;;;;;;;;;;;;;;;;4989203;28;20354;-53
2022/11/25 04:38:37;;;;;;;;;;;;;;;;;;5006166;28;19925;-52
2022/11/25 04:41:03;;;;;;;;;;;;;;;;;;5001812;28;19933;-52
2022/11/25 04:43:29;;;;;;;;;;;;;;;;;;5008542;28;20398;-53
2022/11/25 04:45:55;;;;;;;;;;;;;;;;;;5000848;28;20378;-53
2022/11/25 04:48:20;;;;;;;;;;;;;;;;;;5005378;28;19945;-53
2022/11/25 04:50:46;;;;;;;;;;;;;;;;;;4995319;28;19976;-54
2022/11/25 04:53:12;;;;;;;;;;;;;;;;;;4994167;28;19925;-53
2022/11/25 04:55:38;;;;;;;;;;;;;;;;;;4998448;28;19968;-53
2022/11/25 04:58:04;;;;;;;;;;;;;;;;;;5006616;28;19952;-53
2022/11/25 05:00:30;;;;;;;;;;;;;;;;;;5007747;28;20521;-52
2022/11/25 05:02:56;;;;;;;;;;;;;;;;;;4998705;28;19976;-55
2022/11/25 05:05:21;;;;;;;;;;;;;;;;;;4997538;28;19932;-52
2022/11/25 05:07:47;;;;;;;;;;;;;;;;;;5003207;28;19925;-54
2022/11/25 05:10:13;;;;;;;;;;;;;;;;;;5002740;28;19973;-52
2022/11/25 05:12:40;;;;;;;;;;;;;;;;;;5004810;28;19927;-53
2022/11/25 05:15:06;;;;;;;;;;;;;;;;;;4984152;28;19921;-52
2022/11/25 05:17:32;;;;;;;;;;;;;;;;;;4995235;28;20020;-54
2022/11/25 05:19:58;;;;;;;;;;;;;;;;;;4995031;28;19926;-53
2022/11/25 05:22:24;;;;;;;;;;;;;;;;;;4995333;28;20396;-53
2022/11/25 05:24:50;;;;;;;;;;;;;;;;;;5001147;28;19922;-53
2022/11/25 05:27:16;;;;;;;;;;;;;;;;;;4984097;28;20736;-54
2022/11/25 05:29:42;;;;;;;;;;;;;;;;;;4995710;28;19929;-54
2022/11/25 05:32:08;;;;;;;;;;;;;;;;;;4984126;28;20104;-53
2022/11/25 05:34:34;;;;;;;;;;;;;;;;;;5001214;28;20011;-53
2022/11/25 05:37:00;;;;;;;;;;;;;;;;;;4996323;28;19925;-52
2022/11/25 05:39:26;;;;;;;;;;;;;;;;;;5007368;28;19924;-52
2022/11/25 05:41:52;;;;;;;;;;;;;;;;;;4994104;28;19933;-54
2022/11/25 05:44:18;;;;;;;;;;;;;;;;;;4972921;28;19933;-52
2022/11/25 05:46:44;;;;;;;;;;;;;;;;;;4979274;28;19926;-53
2022/11/25 05:49:10;;;;;;;;;;;;;;;;;;5004849;28;19928;-53
2022/11/25 05:51:36;;;;;;;;;;;;;;;;;;4988468;28;19938;-53
2022/11/25 05:54:01;;;;;;;;;;;;;;;;;;4962581;28;20024;-54
2022/11/25 05:56:27;;;;;;;;;;;;;;;;;;4984650;28;20326;-52
2022/11/25 05:58:54;;;;;;;;;;;;;;;;;;5000507;28;20425;-53
2022/11/25 06:01:20;;;;;;;;;;;;;;;;;;5002683;28;19924;-53
2022/11/25 06:03:46;;;;;;;;;;;;;;;;;;4976201;28;20308;-54
2022/11/25 06:06:11;;;;;;;;;;;;;;;;;;4990372;28;19917;-52
2022/11/25 06:08:37;;;;;;;;;;;;;;;;;;5007356;28;19925;-54
2022/11/25 06:11:03;;;;;;;;;;;;;;;;;;4994287;28;19925;-53
2022/11/25 06:13:29;;;;;;;;;;;;;;;;;;4973532;28;20473;-53
2022/11/25 06:15:55;;;;;;;;;;;;;;;;;;5004849;28;19925;-53
2022/11/25 06:18:21;;;;;;;;;;;;;;;;;;4987021;28;20008;-54
2022/11/25 06:20:47;;;;;;;;;;;;;;;;;;4998002;28;19925;-53
2022/11/25 06:23:12;;;;;;;;;;;;;;;;;;4993521;28;20388;-53
2022/11/25 06:25:38;;;;;;;;;;;;;;;;;;5009278;28;19924;-53
2022/11/25 06:28:04;;;;;;;;;;;;;;;;;;4985307;28;19932;-54
2022/11/25 06:30:30;;;;;;;;;;;;;;;;;;4984076;28;19921;-54
2022/11/25 06:32:56;;;;;;;;;;;;;;;;;;4999338;28;19925;-53
2022/11/25 06:35:22;;;;;;;;;;;;;;;;;;5006722;28;19922;-53
2022/11/25 06:37:48;;;;;;;;;;;;;;;;;;5003283;28;19933;-54
2022/11/25 06:40:14;;;;;;;;;;;;;;;;;;4999234;28;19922;-53
2022/11/25 06:42:42;;;;;;;;;;;;;;;;;;4998654;28;19928;-53
2022/11/25 06:45:08;;;;;;;;;;;;;;;;;;5010124;28;19921;-54
2022/11/25 06:47:33;;;;;;;;;;;;;;;;;;4993383;28;19932;-53
2022/11/25 06:49:59;;;;;;;;;;;;;;;;;;4975522;28;20479;-52
2022/11/25 06:52:25;;;;;;;;;;;;;;;;;;5000874;28;19925;-52
2022/11/25 06:54:52;;;;;;;;;;;;;;;;;;5005289;28;19917;-53
2022/11/25 06:57:18;;;;;;;;;;;;;;;;;;4976756;28;20635;-54
2022/11/25 06:59:44;;;;;;;;;;;;;;;;;;4982298;28;20282;-54
2022/11/25 07:02:10;;;;;;;;;;;;;;;;;;4944518;28;19927;-53
2022/11/25 07:04:36;;;;;;;;;;;;;;;;;;4991527;28;19974;-54
2022/11/25 07:07:02;;;;;;;;;;;;;;;;;;4976488;28;19972;-52
2022/11/25 07:09:28;;;;;;;;;;;;;;;;;;5003474;28;19932;-54
2022/11/25 07:11:54;;;;;;;;;;;;;;;;;;4984410;28;19924;-53
2022/11/25 07:14:20;;;;;;;;;;;;;;;;;;5011436;28;19918;-52
2022/11/25 07:16:46;;;;;;;;;;;;;;;;;;5011560;28;20596;-53
2022/11/25 07:19:12;;;;;;;;;;;;;;;;;;5001223;28;19922;-54
2022/11/25 07:21:37;;;;;;;;;;;;;;;;;;5008151;28;20066;-52
2022/11/25 07:24:03;;;;;;;;;;;;;;;;;;5002231;28;19925;-53
2022/11/25 07:26:29;;;;;;;;;;;;;;;;;;4987084;28;19925;-53
2022/11/25 07:28:55;;;;;;;;;;;;;;;;;;5008690;28;20477;-54
2022/11/25 07:31:21;;;;;;;;;;;;;;;;;;4971294;28;19973;-54
2022/11/25 07:33:47;;;;;;;;;;;;;;;;;;5001934;28;19921;-54
2022/11/25 07:36:13;;;;;;;;;;;;;;;;;;4986800;28;19921;-52
2022/11/25 07:38:39;;;;;;;;;;;;;;;;;;5000129;28;20019;-54
2022/11/25 07:41:05;;;;;;;;;;;;;;;;;;4978831;28;20435;-52
2022/11/25 07:43:31;;;;;;;;;;;;;;;;;;4998606;28;20224;-53
2022/11/25 07:45:57;;;;;;;;;;;;;;;;;;4996819;28;19928;-53
2022/11/25 07:48:22;;;;;;;;;;;;;;;;;;5009799;28;19923;-53
2022/11/25 07:50:49;;;;;;;;;;;;;;;;;;4996418;28;19928;-53
2022/11/25 07:53:14;;;;;;;;;;;;;;;;;;4988024;28;20323;-53
2022/11/25 07:55:40;;;;;;;;;;;;;;;;;;5003617;28;19920;-53
2022/11/25 07:58:06;;;;;;;;;;;;;;;;;;4989675;28;19947;-53
2022/11/25 08:00:32;;;;;;;;;;;;;;;;;;4988936;28;19925;-53
2022/11/25 08:02:58;;;;;;;;;;;;;;;;;;4997688;28;20377;-53
2022/11/25 08:05:24;;;;;;;;;;;;;;;;;;5001481;28;19921;-53
2022/11/25 08:07:50;;;;;;;;;;;;;;;;;;4994736;28;19921;-52
2022/11/25 08:10:15;;;;;;;;;;;;;;;;;;4997507;28;20379;-52
2022/11/25 08:12:41;;;;;;;;;;;;;;;;;;4995937;28;20008;-54
2022/11/25 08:15:07;;;;;;;;;;;;;;;;;;4990082;28;19932;-52
2022/11/25 08:17:33;;;;;;;;;;;;;;;;;;5015871;28;19925;-53
2022/11/25 08:19:59;;;;;;;;;;;;;;;;;;5001487;28;19921;-52
2022/11/25 08:22:25;;;;;;;;;;;;;;;;;;5007239;28;19924;-52
2022/11/25 08:24:51;;;;;;;;;;;;;;;;;;5000369;28;20445;-54
2022/11/25 08:27:17;;;;;;;;;;;;;;;;;;4989206;28;19926;-54
2022/11/25 08:29:42;;;;;;;;;;;;;;;;;;5003814;28;19927;-53
2022/11/25 08:32:08;;;;;;;;;;;;;;;;;;5000794;28;20442;-53
2022/11/25 08:34:34;;;;;;;;;;;;;;;;;;5017293;28;19921;-54
2022/11/25 08:37:00;;;;;;;;;;;;;;;;;;4992526;28;19960;-54
2022/11/25 08:39:26;;;;;;;;;;;;;;;;;;5006874;28;22360;-52
2022/11/25 08:41:52;;;;;;;;;;;;;;;;;;4993653;28;19983;-54
2022/11/25 08:44:18;;;;;;;;;;;;;;;;;;4989252;28;19932;-53
2022/11/25 08:46:44;;;;;;;;;;;;;;;;;;4993579;28;20654;-53
2022/11/25 08:49:09;;;;;;;;;;;;;;;;;;5000733;28;19961;-53
2022/11/25 08:51:35;;;;;;;;;;;;;;;;;;4995197;28;19925;-53
2022/11/25 08:54:01;;;;;;;;;;;;;;;;;;4991530;28;19921;-54
2022/11/25 08:56:27;;;;;;;;;;;;;;;;;;4985234;28;19921;-53
2022/11/25 08:58:53;;;;;;;;;;;;;;;;;;4996308;28;21543;-54
2022/11/25 09:01:19;;;;;;;;;;;;;;;;;;4987711;28;20445;-54
2022/11/25 09:03:45;;;;;;;;;;;;;;;;;;5006811;28;20374;-53
2022/11/25 09:06:11;;;;;;;;;;;;;;;;;;5000414;28;25614;-55
2022/11/25 09:08:37;;;;;;;;;;;;;;;;;;4999960;28;20723;-53
2022/11/25 09:11:03;;;;;;;;;;;;;;;;;;5004986;28;19930;-54
2022/11/25 09:13:29;;;;;;;;;;;;;;;;;;5003398;28;19932;-54
2022/11/25 09:15:55;;;;;;;;;;;;;;;;;;4986498;28;19951;-55
2022/11/25 09:18:25;;;;;;;;;;;;;;;;;;4984909;28;19926;-54
2022/11/25 09:20:51;;;;;;;;;;;;;;;;;;4985947;28;20018;-55
2022/11/25 09:23:16;;;;;;;;;;;;;;;;;;4980767;28;19925;-54
2022/11/25 09:25:42;;;;;;;;;;;;;;;;;;4989034;28;19925;-55
2022/11/25 09:28:08;;;;;;;;;;;;;;;;;;4979359;28;20387;-53
2022/11/25 09:30:34;;;;;;;;;;;;;;;;;;4991914;28;19925;-54
2022/11/25 09:33:00;;;;;;;;;;;;;;;;;;4996977;28;19921;-54
2022/11/25 09:35:26;;;;;;;;;;;;;;;;;;5009944;28;20386;-55
2022/11/25 09:37:52;;;;;;;;;;;;;;;;;;4963536;28;20417;-54
2022/11/25 09:40:18;;;;;;;;;;;;;;;;;;5008005;28;20020;-53
2022/11/25 09:48:13;;;;;;;;;;;;;;;;;;4977836;28;19968;-54
2022/11/25 09:50:39;;;;;;;;;;;;;;;;;;4983576;28;19965;-55
2022/11/25 09:53:05;;;;;;;;;;;;;;;;;;4979191;28;19920;-55
2022/11/25 09:55:31;;;;;;;;;;;;;;;;;;4980902;28;19921;-54
2022/11/25 09:57:57;;;;;;;;;;;;;;;;;;4998847;28;20481;-54
2022/11/25 10:00:23;;;;;;;;;;;;;;;;;;4980871;28;19925;-55
2022/11/25 10:02:49;;;;;;;;;;;;;;;;;;4981352;28;19922;-54
2022/11/25 10:05:15;;;;;;;;;;;;;;;;;;5001575;28;19921;-53
2022/11/25 10:07:41;;;;;;;;;;;;;;;;;;5010589;28;19944;-54
2022/11/25 10:10:07;;;;;;;;;;;;;;;;;;4993126;28;19940;-54
2022/11/25 10:12:33;;;;;;;;;;;;;;;;;;4999046;28;20080;-53
2022/11/25 10:14:59;;;;;;;;;;;;;;;;;;4979298;28;19925;-55
2022/11/25 10:17:24;;;;;;;;;;;;;;;;;;4987926;28;20508;-53
2022/11/25 10:19:50;;;;;;;;;;;;;;;;;;5001340;28;19921;-54
2022/11/25 10:22:16;;;;;;;;;;;;;;;;;;5004978;28;19967;-54
2022/11/25 10:24:42;;;;;;;;;;;;;;;;;;5006032;28;19921;-54
2022/11/25 10:27:08;;;;;;;;;;;;;;;;;;5002143;28;19925;-54
2022/11/25 10:29:34;;;;;;;;;;;;;;;;;;5000831;28;19933;-54
2022/11/25 10:32:00;;;;;;;;;;;;;;;;;;5008452;28;19929;-56
2022/11/25 10:34:27;;;;;;;;;;;;;;;;;;4986582;28;19926;-54
2022/11/25 10:36:53;;;;;;;;;;;;;;;;;;5009348;28;19960;-54
2022/11/25 10:39:19;;;;;;;;;;;;;;;;;;5006059;28;20003;-55
2022/11/25 10:41:45;;;;;;;;;;;;;;;;;;5008596;28;19932;-55
2022/11/25 10:44:11;;;;;;;;;;;;;;;;;;5004081;28;19925;-54
2022/11/25 10:46:37;;;;;;;;;;;;;;;;;;5013512;28;19917;-55
2022/11/25 10:49:03;;;;;;;;;;;;;;;;;;4987717;28;20409;-54
2022/11/25 10:51:29;;;;;;;;;;;;;;;;;;4996005;28;20570;-55
2022/11/25 10:53:54;;;;;;;;;;;;;;;;;;4988107;28;19925;-56
2022/11/25 10:56:20;;;;;;;;;;;;;;;;;;4998687;28;19930;-54
2022/11/25 10:58:47;;;;;;;;;;;;;;;;;;5007436;28;20373;-55
2022/11/25 11:01:13;;;;;;;;;;;;;;;;;;5004464;28;20014;-54
2022/11/25 11:03:39;;;;;;;;;;;;;;;;;;5006248;28;20041;-54
2022/11/25 11:06:04;;;;;;;;;;;;;;;;;;4997292;28;20047;-54
2022/11/25 11:08:30;;;;;;;;;;;;;;;;;;4982566;28;19921;-54
2022/11/25 11:10:56;;;;;;;;;;;;;;;;;;4991125;28;20401;-55
2022/11/25 11:13:23;;;;;;;;;;;;;;;;;;5003794;28;19929;-54
2022/11/25 11:15:48;;;;;;;;;;;;;;;;;;4993770;28;20453;-54
2022/11/25 11:18:14;;;;;;;;;;;;;;;;;;4998308;28;19929;-55
2022/11/25 11:20:40;;;;;;;;;;;;;;;;;;4997033;28;20197;-55
2022/11/25 11:23:06;;;;;;;;;;;;;;;;;;5019724;28;19945;-55
2022/11/25 11:25:32;;;;;;;;;;;;;;;;;;4989032;28;19985;-55
2022/11/25 11:27:58;;;;;;;;;;;;;;;;;;5007530;28;19931;-55
2022/11/25 11:30:24;;;;;;;;;;;;;;;;;;5004541;28;19925;-55
2022/11/25 11:32:50;;;;;;;;;;;;;;;;;;4993185;28;19926;-54
2022/11/25 11:35:16;;;;;;;;;;;;;;;;;;4994733;28;20011;-55
2022/11/25 11:37:43;;;;;;;;;;;;;;;;;;4976192;28;19930;-55
2022/11/25 11:40:08;;;;;;;;;;;;;;;;;;4972597;28;19929;-54
2022/11/25 11:42:34;;;;;;;;;;;;;;;;;;4989990;28;19921;-54
2022/11/25 11:45:00;;;;;;;;;;;;;;;;;;4972722;28;19925;-55
2022/11/25 11:47:26;;;;;;;;;;;;;;;;;;4977976;28;19926;-54
2022/11/25 11:49:52;;;;;;;;;;;;;;;;;;4980835;28;19996;-54
2022/11/25 11:52:18;;;;;;;;;;;;;;;;;;4968803;28;20021;-54
2022/11/25 11:54:44;;;;;;;;;;;;;;;;;;4974669;28;20398;-55
2022/11/25 11:57:10;;;;;;;;;;;;;;;;;;4976083;28;19925;-54
2022/11/25 11:59:36;;;;;;;;;;;;;;;;;;4993943;28;19925;-54
2022/11/25 12:02:02;;;;;;;;;;;;;;;;;;4981273;28;20359;-54
2022/11/25 12:04:28;;;;;;;;;;;;;;;;;;4977219;28;20165;-54
2022/11/25 12:06:54;;;;;;;;;;;;;;;;;;4980941;28;19921;-54
2022/11/25 12:09:20;;;;;;;;;;;;;;;;;;4976919;28;19928;-56
2022/11/25 12:11:46;;;;;;;;;;;;;;;;;;4967157;28;20419;-54
2022/11/25 12:14:11;;;;;;;;;;;;;;;;;;4957735;28;19917;-54
2022/11/25 12:16:37;;;;;;;;;;;;;;;;;;4966015;28;19925;-53
2022/11/25 12:19:03;;;;;;;;;;;;;;;;;;4958435;28;20446;-54
2022/11/25 12:21:29;;;;;;;;;;;;;;;;;;4958218;28;19926;-53
2022/11/25 12:23:55;;;;;;;;;;;;;;;;;;4965443;28;20059;-54
2022/11/25 12:26:21;;;;;;;;;;;;;;;;;;4977068;28;20463;-54
2022/11/25 12:28:47;;;;;;;;;;;;;;;;;;4974949;28;19929;-54
2022/11/25 12:31:13;;;;;;;;;;;;;;;;;;4980448;28;19937;-55
2022/11/25 12:33:39;;;;;;;;;;;;;;;;;;4993752;28;19926;-55
2022/11/25 12:36:05;;;;;;;;;;;;;;;;;;4995377;28;20268;-54
2022/11/25 12:38:30;;;;;;;;;;;;;;;;;;4978263;28;19930;-54
2022/11/25 12:40:56;;;;;;;;;;;;;;;;;;4967032;28;20362;-54
2022/11/25 12:43:22;;;;;;;;;;;;;;;;;;4985195;28;19925;-55
2022/11/25 12:45:48;;;;;;;;;;;;;;;;;;4958151;28;19979;-55
2022/11/25 12:48:14;;;;;;;;;;;;;;;;;;4971355;28;19921;-54
2022/11/25 12:50:40;;;;;;;;;;;;;;;;;;4986556;28;20313;-54
2022/11/25 12:53:06;;;;;;;;;;;;;;;;;;4969652;28;19925;-55
2022/11/25 12:55:31;;;;;;;;;;;;;;;;;;4978990;28;20487;-54
2022/11/25 12:57:57;;;;;;;;;;;;;;;;;;4980729;28;19926;-54
2022/11/25 13:00:24;;;;;;;;;;;;;;;;;;4984154;28;19929;-54
2022/11/25 13:02:49;;;;;;;;;;;;;;;;;;4955714;28;19926;-54
2022/11/25 13:05:16;;;;;;;;;;;;;;;;;;4988057;28;20284;-54
2022/11/25 13:07:42;;;;;;;;;;;;;;;;;;4966204;28;19924;-55
2022/11/25 13:10:08;;;;;;;;;;;;;;;;;;4984806;28;19925;-55
2022/11/25 13:12:34;;;;;;;;;;;;;;;;;;4978768;28;19952;-56
2022/11/25 13:15:00;;;;;;;;;;;;;;;;;;4971083;28;19940;-53
2022/11/25 13:17:26;;;;;;;;;;;;;;;;;;4968349;28;20009;-54
2022/11/25 13:19:51;;;;;;;;;;;;;;;;;;4982524;28;20422;-55
2022/11/25 13:22:17;;;;;;;;;;;;;;;;;;4969789;28;19956;-54
2022/11/25 13:24:43;;;;;;;;;;;;;;;;;;4955488;28;20319;-55
2022/11/25 13:27:09;;;;;;;;;;;;;;;;;;4935909;28;21510;-55
2022/11/25 13:29:35;;;;;;;;;;;;;;;;;;4940775;28;19949;-56
2022/11/25 13:32:01;;;;;;;;;;;;;;;;;;4955451;28;19928;-56
2022/11/25 13:34:27;;;;;;;;;;;;;;;;;;4967466;28;19924;-55
2022/11/25 13:36:53;;;;;;;;;;;;;;;;;;4966291;28;19932;-54
2022/11/25 13:39:18;;;;;;;;;;;;;;;;;;4966824;28;20492;-54
2022/11/25 13:41:44;;;;;;;;;;;;;;;;;;4969559;28;19925;-54
2022/11/25 13:44:10;;;;;;;;;;;;;;;;;;4970408;28;20747;-56
2022/11/25 13:46:36;;;;;;;;;;;;;;;;;;4967048;28;19925;-55
2022/11/25 13:49:02;;;;;;;;;;;;;;;;;;4988581;28;20431;-54
2022/11/25 13:51:28;;;;;;;;;;;;;;;;;;4983133;28;19925;-55
2022/11/25 13:53:54;;;;;;;;;;;;;;;;;;4970472;28;19926;-54
2022/11/25 13:56:20;;;;;;;;;;;;;;;;;;4968847;28;20322;-53
2022/11/25 13:58:45;;;;;;;;;;;;;;;;;;4983042;28;20022;-54
2022/11/25 14:01:11;;;;;;;;;;;;;;;;;;4974050;28;19925;-53
2022/11/25 14:03:37;;;;;;;;;;;;;;;;;;4980164;28;19929;-54
2022/11/25 14:06:03;;;;;;;;;;;;;;;;;;4969151;28;19943;-54
2022/11/25 14:08:30;;;;;;;;;;;;;;;;;;4970687;28;19945;-54
2022/11/25 14:10:55;;;;;;;;;;;;;;;;;;4977020;28;19941;-54
2022/11/25 14:13:21;;;;;;;;;;;;;;;;;;4974201;28;21166;-54
2022/11/25 14:15:47;;;;;;;;;;;;;;;;;;4961828;28;19969;-55
2022/11/25 14:18:13;;;;;;;;;;;;;;;;;;4993990;28;20698;-53
2022/11/25 14:20:39;;;;;;;;;;;;;;;;;;4953866;28;19964;-55
2022/11/25 14:23:05;;;;;;;;;;;;;;;;;;4967873;28;19934;-54
2022/11/25 14:25:31;;;;;;;;;;;;;;;;;;4986202;28;19931;-54
2022/11/25 14:27:57;;;;;;;;;;;;;;;;;;4959463;28;20384;-54
2022/11/25 14:30:22;;;;;;;;;;;;;;;;;;4961600;28;19932;-54
2022/11/25 14:32:48;;;;;;;;;;;;;;;;;;4973841;28;20228;-54
2022/11/25 14:35:14;;;;;;;;;;;;;;;;;;4969322;28;20014;-56
2022/11/25 14:37:40;;;;;;;;;;;;;;;;;;4974853;28;19960;-55
2022/11/25 14:40:06;;;;;;;;;;;;;;;;;;4947256;28;20331;-54
2022/11/25 14:42:32;;;;;;;;;;;;;;;;;;4978520;28;19918;-53
2022/11/25 14:44:58;;;;;;;;;;;;;;;;;;4983395;28;20242;-55
2022/11/25 14:47:24;;;;;;;;;;;;;;;;;;4975744;28;19925;-53
2022/11/25 14:49:51;;;;;;;;;;;;;;;;;;4951656;28;20331;-54
2022/11/25 14:52:17;;;;;;;;;;;;;;;;;;4971598;28;19936;-53
2022/11/25 14:54:42;;;;;;;;;;;;;;;;;;4980649;28;19925;-54
2022/11/25 14:57:08;;;;;;;;;;;;;;;;;;4985027;28;19933;-54
2022/11/25 14:59:34;;;;;;;;;;;;;;;;;;4969339;28;19929;-54
2022/11/25 15:02:00;;;;;;;;;;;;;;;;;;4978258;28;19925;-53
2022/11/25 15:04:26;;;;;;;;;;;;;;;;;;4965739;28;19939;-58
2022/11/25 15:06:52;;;;;;;;;;;;;;;;;;4967372;28;20402;-63
2022/11/25 15:09:18;;;;;;;;;;;;;;;;;;4954926;28;19926;-60
2022/11/25 15:11:44;;;;;;;;;;;;;;;;;;4964972;28;19925;-58
2022/11/25 15:14:10;;;;;;;;;;;;;;;;;;4981592;28;20400;-58
2022/11/25 15:16:36;;;;;;;;;;;;;;;;;;4968995;28;19921;-58
2022/11/25 15:19:02;;;;;;;;;;;;;;;;;;4953487;28;19925;-58
2022/11/25 15:21:27;;;;;;;;;;;;;;;;;;4973311;28;20367;-58
2022/11/25 15:23:53;;;;;;;;;;;;;;;;;;4936164;28;20353;-58
2022/11/25 15:26:19;;;;;;;;;;;;;;;;;;4965587;28;19932;-58
2022/11/25 15:28:45;;;;;;;;;;;;;;;;;;4980672;28;19925;-59
2022/11/25 15:31:11;;;;;;;;;;;;;;;;;;4979121;28;19936;-58
2022/11/25 15:33:37;;;;;;;;;;;;;;;;;;4981685;28;19921;-58
2022/11/25 15:36:03;;;;;;;;;;;;;;;;;;4988422;28;20442;-58
2022/11/25 15:38:29;;;;;;;;;;;;;;;;;;4987797;28;19929;-58
2022/11/25 15:40:55;;;;;;;;;;;;;;;;;;4986763;28;19925;-59
2022/11/25 15:43:21;;;;;;;;;;;;;;;;;;4988369;28;19925;-59
2022/11/25 15:45:46;;;;;;;;;;;;;;;;;;4972385;28;19925;-58
2022/11/25 15:48:12;;;;;;;;;;;;;;;;;;4984781;28;19925;-58
2022/11/25 15:50:38;;;;;;;;;;;;;;;;;;4984379;28;19929;-58
2022/11/25 15:53:04;;;;;;;;;;;;;;;;;;4960936;28;20410;-59
2022/11/25 15:55:30;;;;;;;;;;;;;;;;;;4975535;28;23212;-58
2022/11/25 15:57:56;;;;;;;;;;;;;;;;;;4974654;28;20564;-59
2022/11/25 16:00:22;;;;;;;;;;;;;;;;;;4982615;28;20291;-58
2022/11/25 16:02:48;;;;;;;;;;;;;;;;;;4985802;28;19972;-59
2022/11/25 16:05:14;;;;;;;;;;;;;;;;;;4975949;28;20016;-58
2022/11/25 16:07:40;;;;;;;;;;;;;;;;;;4973476;28;19949;-58
2022/11/25 16:10:06;;;;;;;;;;;;;;;;;;4988270;28;19925;-59
2022/11/25 16:12:32;;;;;;;;;;;;;;;;;;4972230;28;19922;-58
2022/11/25 16:14:58;;;;;;;;;;;;;;;;;;4963665;28;19948;-58
2022/11/25 16:17:24;;;;;;;;;;;;;;;;;;4991956;28;19967;-59
2022/11/25 16:19:49;;;;;;;;;;;;;;;;;;4977622;28;20404;-58
2022/11/25 16:22:15;;;;;;;;;;;;;;;;;;4977492;28;20088;-59
2022/11/25 16:24:42;;;;;;;;;;;;;;;;;;4989326;28;19924;-58
2022/11/25 16:27:08;;;;;;;;;;;;;;;;;;4972616;28;21774;-58
2022/11/25 16:29:33;;;;;;;;;;;;;;;;;;4974610;28;19921;-58
2022/11/25 16:31:59;;;;;;;;;;;;;;;;;;4970128;28;20887;-58
2022/11/25 16:34:25;;;;;;;;;;;;;;;;;;4981025;28;19921;-58
2022/11/25 16:36:51;;;;;;;;;;;;;;;;;;4976895;28;20392;-58
2022/11/25 16:39:17;;;;;;;;;;;;;;;;;;4957866;28;20319;-58
2022/11/25 16:41:45;;;;;;;;;;;;;;;;;;4974279;28;19964;-58
2022/11/25 16:44:11;;;;;;;;;;;;;;;;;;4987063;28;19990;-58
2022/11/25 16:46:36;;;;;;;;;;;;;;;;;;4977773;28;20383;-59